Time;durP1;ratioP1;P1;durP2;ratioP2;P2;SDS_P1;SDS_P2;PMS_P1;PMS_P2;Temp;Humidity;BMP_temperature;BMP_pressure;BME280_temperature;BME280_humidity;BME280_pressure;Samples;Min_cycle;Max_cycle;Signal;HPM_P1;HPM_P2
2022/07/23 00:00:46;;;;;;;5.68;2.30;;;;;;;20.62;54.16;101768.38;5052091;28;20136;-64
2022/07/23 00:03:16;;;;;;;2.70;1.70;;;;;;;20.50;54.18;101745.94;5063767;28;20053;-64
2022/07/23 00:05:43;;;;;;;3.92;1.80;;;;;;;20.61;54.04;101771.38;5059327;28;20053;-65
2022/07/23 00:08:11;;;;;;;6.15;2.45;;;;;;;20.58;54.17;101770.00;5058960;28;20060;-65
2022/07/23 00:10:41;;;;;;;5.50;2.47;;;;;;;20.51;54.34;101757.69;5063766;28;20075;-65
2022/07/23 00:13:09;;;;;;;3.15;1.90;;;;;;;20.56;54.27;101769.47;5057094;28;20068;-65
2022/07/23 00:15:37;;;;;;;3.78;2.10;;;;;;;20.57;54.25;101764.81;5060704;28;20053;-65
2022/07/23 00:18:05;;;;;;;3.90;2.35;;;;;;;20.55;54.29;101765.09;5057045;28;20049;-65
2022/07/23 00:20:34;;;;;;;2.92;1.90;;;;;;;20.54;54.26;101762.63;5060146;28;20046;-65
2022/07/23 00:23:02;;;;;;;4.85;2.17;;;;;;;20.52;54.34;101765.63;5056572;28;20049;-64
2022/07/23 00:25:29;;;;;;;4.30;2.65;;;;;;;20.52;54.26;101776.53;5059412;28;20045;-64
2022/07/23 00:27:59;;;;;;;3.42;2.00;;;;;;;20.48;54.48;101761.78;5054168;28;20450;-65
2022/07/23 00:30:29;;;;;;;2.92;2.17;;;;;;;20.50;54.25;101769.69;5060153;28;20045;-64
2022/07/23 00:32:58;;;;;;;4.75;2.00;;;;;;;20.50;54.35;101764.22;5052338;28;20049;-65
2022/07/23 00:35:28;;;;;;;4.28;1.98;;;;;;;20.49;54.38;101765.31;5062729;28;20052;-64
2022/07/23 00:37:58;;;;;;;2.97;2.03;;;;;;;20.47;54.36;101762.84;5060906;28;20079;-64
2022/07/23 00:40:28;;;;;;;4.00;1.98;;;;;;;20.44;54.36;101764.22;5059608;28;20099;-64
2022/07/23 00:42:56;;;;;;;3.13;1.90;;;;;;;20.44;54.53;101772.41;5058629;28;20072;-64
2022/07/23 00:45:24;;;;;;;4.20;1.92;;;;;;;20.40;54.42;101759.53;5058448;28;20049;-64
2022/07/23 00:47:52;;;;;;;3.15;1.92;;;;;;;20.43;54.40;101772.66;5062303;28;20053;-63
2022/07/23 00:50:20;;;;;;;4.05;2.10;;;;;;;20.41;54.57;101764.75;5060256;28;20048;-64
2022/07/23 00:52:48;;;;;;;4.30;1.90;;;;;;;20.39;54.53;101756.00;5065598;28;20053;-64
2022/07/23 00:55:17;;;;;;;4.18;2.33;;;;;;;20.36;54.55;101756.50;5060535;28;20049;-64
2022/07/23 00:57:44;;;;;;;3.22;2.00;;;;;;;20.37;54.47;101760.03;5058416;28;20056;-65
2022/07/23 01:00:15;;;;;;;6.45;2.85;;;;;;;20.36;54.57;101759.22;5060744;28;20056;-64
2022/07/23 01:02:43;;;;;;;4.20;2.10;;;;;;;20.30;54.64;101748.53;5064974;28;20056;-65
2022/07/23 01:05:13;;;;;;;6.43;2.45;;;;;;;20.33;54.55;101754.28;5058695;28;20095;-64
2022/07/23 01:07:41;;;;;;;6.28;2.30;;;;;;;20.32;54.50;101752.66;5063691;28;20060;-64
2022/07/23 01:12:52;;;;;;;3.08;2.53;;;;;;;20.29;54.54;101752.34;5056049;28;20060;-65
2022/07/23 01:15:20;;;;;;;4.20;2.22;;;;;;;20.28;54.65;101750.72;5063033;28;21331;-65
2022/07/23 01:17:48;;;;;;;4.90;2.45;;;;;;;20.27;54.73;101749.88;5066050;28;20136;-65
2022/07/23 01:20:16;;;;;;;4.30;2.33;;;;;;;20.26;54.60;101750.97;5062747;28;20088;-65
2022/07/23 01:22:45;;;;;;;5.45;2.40;;;;;;;20.24;54.52;101761.34;5068571;28;20080;-65
2022/07/23 01:25:13;;;;;;;4.28;2.03;;;;;;;20.25;54.72;101756.69;5057418;28;20049;-65
2022/07/23 01:27:41;;;;;;;3.90;1.98;;;;;;;20.25;54.64;101751.25;5058868;28;20040;-65
2022/07/23 01:30:10;;;;;;;5.65;2.00;;;;;;;20.25;54.63;101754.78;5065823;28;20072;-65
2022/07/23 01:32:38;;;;;;;4.53;2.10;;;;;;;20.23;54.74;101756.97;5066686;28;20049;-64
2022/07/23 01:35:07;;;;;;;6.07;2.20;;;;;;;20.22;54.79;101758.06;5060365;28;20061;-64
2022/07/23 01:37:35;;;;;;;3.35;2.10;;;;;;;20.21;54.54;101755.59;5066940;28;20057;-65
2022/07/23 01:40:06;;;;;;;6.82;2.70;;;;;;;20.20;54.78;101753.94;5065004;28;20068;-65
2022/07/23 01:42:34;;;;;;;5.65;2.40;;;;;;;20.14;54.71;101739.44;5053444;28;20076;-65
2022/07/23 01:45:02;;;;;;;3.58;2.03;;;;;;;20.17;54.62;101744.38;5060083;28;20092;-65
2022/07/23 01:47:30;;;;;;;4.95;2.30;;;;;;;20.14;54.85;101745.72;5061989;28;20084;-65
2022/07/23 01:49:58;;;;;;;5.97;2.22;;;;;;;20.14;54.74;101750.34;5060943;28;20051;-65
2022/07/23 01:52:26;;;;;;;3.60;2.63;;;;;;;20.13;54.77;101751.44;5050656;28;20049;-65
2022/07/23 01:54:53;;;;;;;5.80;2.47;;;;;;;20.12;54.87;101747.88;5062133;28;20072;-65
2022/07/23 01:57:22;;;;;;;4.70;2.33;;;;;;;20.12;54.70;101736.97;5064003;28;20060;-66
2022/07/23 01:59:50;;;;;;;4.80;2.30;;;;;;;20.08;54.41;101730.41;5065388;28;20048;-65
2022/07/23 02:02:18;;;;;;;3.08;2.20;;;;;;;20.07;54.90;101730.66;5064468;28;20049;-64
2022/07/23 02:04:46;;;;;;;5.13;2.55;;;;;;;20.07;54.67;101736.94;5062302;28;21324;-64
2022/07/23 02:07:14;;;;;;;4.07;2.05;;;;;;;20.04;54.80;101742.94;5066279;28;20379;-64
2022/07/23 02:09:41;;;;;;;7.03;2.40;;;;;;;20.00;54.64;101732.81;5057669;28;20048;-64
2022/07/23 02:12:09;;;;;;;3.25;2.05;;;;;;;20.01;54.71;101737.16;5062921;28;20118;-65
2022/07/23 02:14:38;;;;;;;3.47;2.20;;;;;;;20.02;54.77;101738.81;5066876;28;20071;-65
2022/07/23 02:17:06;;;;;;;3.85;2.10;;;;;;;19.99;54.80;101740.16;5078854;28;20078;-64
2022/07/23 02:19:34;;;;;;;3.33;2.13;;;;;;;19.97;54.79;101739.59;5061809;28;20506;-64
2022/07/23 02:22:01;;;;;;;4.40;2.33;;;;;;;19.93;54.98;101729.47;5063511;28;20076;-65
2022/07/23 02:24:29;;;;;;;2.78;2.00;;;;;;;19.97;54.21;101734.16;5054975;28;20128;-65
2022/07/23 02:26:57;;;;;;;3.28;2.33;;;;;;;19.96;54.99;101732.50;5058375;28;20465;-65
2022/07/23 02:29:25;;;;;;;4.65;2.20;;;;;;;19.95;54.92;101730.84;5056770;28;20048;-64
2022/07/23 02:31:54;;;;;;;4.30;2.63;;;;;;;19.96;54.77;101732.50;5057983;28;20063;-63
2022/07/23 02:34:21;;;;;;;2.78;2.10;;;;;;;19.94;54.97;101725.66;5058023;28;20114;-64
2022/07/23 02:36:49;;;;;;;3.58;2.38;;;;;;;19.91;54.94;101727.00;5070283;28;20106;-64
2022/07/23 02:39:17;;;;;;;3.72;2.50;;;;;;;19.92;55.22;101733.28;5068193;28;20083;-64
2022/07/23 02:41:45;;;;;;;5.60;2.40;;;;;;;19.92;54.95;101738.75;5062709;28;20104;-64
2022/07/23 02:44:12;;;;;;;3.22;2.33;;;;;;;19.89;54.96;101731.91;5063453;28;20522;-64
2022/07/23 02:46:40;;;;;;;3.63;2.28;;;;;;;19.90;55.00;101739.00;5059672;28;20108;-64
2022/07/23 02:49:09;;;;;;;4.43;2.28;;;;;;;19.89;55.07;101739.28;5063724;28;20049;-65
2022/07/23 02:51:37;;;;;;;5.35;2.50;;;;;;;19.87;55.08;101733.25;5059454;28;20629;-65
2022/07/23 02:54:05;;;;;;;3.92;2.50;;;;;;;19.73;54.89;101711.88;5065860;28;20077;-65
2022/07/23 02:56:33;;;;;;;4.30;2.45;;;;;;;19.84;55.27;101726.41;5066357;28;20041;-65
2022/07/23 02:59:01;;;;;;;3.80;2.17;;;;;;;19.81;55.13;101730.50;5067580;28;20075;-64
2022/07/23 03:01:29;;;;;;;3.85;2.70;;;;;;;19.81;55.06;101727.75;5051298;28;20054;-64
2022/07/23 03:03:57;;;;;;;5.65;2.92;;;;;;;19.80;55.08;101731.56;5060158;28;20062;-64
2022/07/23 03:06:26;;;;;;;5.35;2.88;;;;;;;19.73;55.59;101720.06;5062730;28;20079;-64
2022/07/23 03:08:54;;;;;;;3.58;2.45;;;;;;;19.80;55.15;101733.47;5060972;28;20049;-64
2022/07/23 03:11:22;;;;;;;4.45;2.50;;;;;;;19.79;55.32;101729.09;5064893;28;20045;-65
2022/07/23 03:13:49;;;;;;;5.82;2.88;;;;;;;19.77;55.33;101734.00;5061989;28;20114;-65
2022/07/23 03:16:17;;;;;;;3.63;2.70;;;;;;;19.75;55.52;101741.63;5063145;28;20056;-65
2022/07/23 03:18:45;;;;;;;4.35;2.42;;;;;;;19.74;55.54;101743.53;5067745;28;20049;-65
2022/07/23 03:21:14;;;;;;;3.65;2.40;;;;;;;19.63;55.23;101727.34;5055222;28;20045;-64
2022/07/23 03:23:43;;;;;;;5.43;2.90;;;;;;;19.73;55.34;101741.06;5063991;28;20045;-64
2022/07/23 03:26:11;;;;;;;4.20;3.25;;;;;;;19.72;55.30;101751.16;5060535;28;20080;-64
2022/07/23 03:28:39;;;;;;;5.18;3.20;;;;;;;19.71;55.60;101754.13;5065247;28;20055;-64
2022/07/23 03:31:06;;;;;;;7.13;2.80;;;;;;;19.59;55.36;101748.88;5062199;28;20048;-64
2022/07/23 03:33:34;;;;;;;5.47;2.70;;;;;;;19.68;55.52;101755.50;5064379;28;20104;-64
2022/07/23 03:36:02;;;;;;;4.68;3.05;;;;;;;19.66;55.47;101763.09;5052648;28;20193;-64
2022/07/23 03:38:34;;;;;;;4.05;3.17;;;;;;;19.64;55.41;101759.81;5065032;28;20133;-65
2022/07/23 03:41:03;;;;;;;6.00;3.38;;;;;;;19.64;55.51;101765.28;5065357;28;20052;-65
2022/07/23 03:43:32;;;;;;;6.22;3.35;;;;;;;19.59;55.75;101761.69;5063247;28;20263;-65
2022/07/23 03:46:00;;;;;;;5.40;2.75;;;;;;;19.62;55.56;101761.97;5060953;28;20079;-64
2022/07/23 03:48:28;;;;;;;4.47;2.63;;;;;;;19.60;55.62;101763.31;5062923;28;20048;-65
2022/07/23 03:50:55;;;;;;;4.72;3.35;;;;;;;19.59;55.59;101756.22;5050755;28;20128;-65
2022/07/23 03:53:23;;;;;;;4.90;3.15;;;;;;;19.55;55.51;101755.91;5061183;28;20049;-65
2022/07/23 03:55:51;;;;;;;6.30;3.35;;;;;;;19.57;55.40;101763.84;5063216;28;20072;-64
2022/07/23 03:58:20;;;;;;;9.25;3.75;;;;;;;19.55;55.76;101760.56;5055562;28;20046;-65
2022/07/23 04:00:48;;;;;;;7.25;3.75;;;;;;;19.55;55.73;101755.91;5062641;28;20076;-64
2022/07/23 04:03:15;;;;;;;5.97;4.18;;;;;;;19.55;55.54;101758.66;5063369;28;20084;-64
2022/07/23 04:05:43;;;;;;;5.15;3.53;;;;;;;19.53;55.46;101763.53;5052668;28;20170;-64
2022/07/23 04:08:11;;;;;;;5.72;3.90;;;;;;;19.51;55.31;101760.22;5062215;28;20052;-65
2022/07/23 04:10:39;;;;;;;7.20;4.20;;;;;;;19.49;55.58;101760.47;5061135;28;20441;-64
2022/07/23 04:13:07;;;;;;;5.85;4.25;;;;;;;19.49;55.57;101765.94;5054224;28;20049;-64
2022/07/23 04:15:37;;;;;;;7.05;4.03;;;;;;;19.43;55.37;101756.06;5061549;28;20056;-64
2022/07/23 04:18:05;;;;;;;6.13;4.35;;;;;;;19.47;55.63;101765.38;5059935;28;20455;-65
2022/07/23 04:20:33;;;;;;;6.00;4.25;;;;;;;19.42;55.65;101764.50;5061517;28;20180;-65
2022/07/23 04:23:07;;;;;;;9.05;4.40;;;;;;;19.45;55.78;101770.25;5060444;28;20049;-65
2022/07/23 04:25:34;;;;;;;7.03;4.18;;;;;;;19.43;55.67;101779.78;5055602;28;20076;-66
2022/07/23 04:28:02;;;;;;;5.07;3.88;;;;;;;19.42;55.93;101778.94;5059152;28;20048;-65
2022/07/23 04:30:30;;;;;;;8.00;4.05;;;;;;;19.22;55.78;101759.66;5055092;28;20056;-65
2022/07/23 04:32:59;;;;;;;5.22;3.83;;;;;;;19.39;55.75;101781.38;5062664;28;20045;-64
2022/07/23 04:35:27;;;;;;;7.50;4.90;;;;;;;19.39;56.11;101790.38;5063468;28;20067;-64
2022/07/23 04:37:55;;;;;;;8.60;4.03;;;;;;;19.35;55.65;101781.06;5066906;28;20060;-64
2022/07/23 04:40:23;;;;;;;6.13;4.10;;;;;;;19.35;55.98;101791.97;5063034;28;20090;-65
2022/07/23 04:42:51;;;;;;;5.68;4.47;;;;;;;19.33;56.11;101794.13;4705158;28;10000051;-65
2022/07/23 04:45:18;;;;;;;5.78;4.05;;;;;;;19.33;55.81;101798.75;5055457;28;20134;-65
2022/07/23 04:47:46;;;;;;;7.57;4.80;;;;;;;19.32;55.85;101797.09;5052889;28;20060;-65
2022/07/23 04:50:18;;;;;;;5.70;3.90;;;;;;;19.31;55.98;101793.56;5056149;28;20057;-65
2022/07/23 04:52:46;;;;;;;5.72;4.07;;;;;;;19.30;56.07;101797.38;5062567;28;20091;-65
2022/07/23 04:55:14;;;;;;;6.90;3.58;;;;;;;19.29;56.20;101800.34;5060763;28;20466;-65
2022/07/23 04:57:42;;;;;;;6.55;3.33;;;;;;;19.26;56.02;101803.59;5053839;28;20119;-64
2022/07/23 05:00:11;;;;;;;6.82;3.85;;;;;;;19.25;56.28;101801.94;5066585;28;20052;-64
2022/07/23 05:02:38;;;;;;;5.82;3.55;;;;;;;19.24;56.09;101805.75;5061366;28;20083;-64
2022/07/23 05:05:07;;;;;;;5.18;3.13;;;;;;;19.23;55.98;101804.91;5061513;28;20077;-65
2022/07/23 05:07:36;;;;;;;4.45;3.05;;;;;;;19.08;55.79;101785.69;5060552;28;20160;-65
2022/07/23 05:10:04;;;;;;;5.40;3.10;;;;;;;19.19;55.84;101815.50;5060276;28;20087;-65
2022/07/23 05:12:32;;;;;;;6.78;3.20;;;;;;;19.19;56.29;101817.41;5052420;28;20045;-64
2022/07/23 05:15:00;;;;;;;5.60;3.17;;;;;;;19.18;56.06;101808.41;5062140;28;20068;-65
2022/07/23 05:17:28;;;;;;;4.97;3.00;;;;;;;19.18;55.97;101813.03;5062853;28;20049;-65
2022/07/23 05:19:55;;;;;;;6.82;3.55;;;;;;;19.16;55.77;101815.19;5043712;28;20079;-64
2022/07/23 05:22:28;;;;;;;5.75;3.45;;;;;;;19.16;55.90;101810.56;5059349;28;20080;-64
2022/07/23 05:24:57;;;;;;;5.65;3.03;;;;;;;19.17;55.88;101814.94;5069140;28;20449;-64
2022/07/23 05:27:25;;;;;;;4.28;2.67;;;;;;;19.17;55.82;101814.94;5055383;28;20370;-65
2022/07/23 05:29:53;;;;;;;3.97;3.08;;;;;;;19.18;55.83;101818.50;5056427;28;20048;-65
2022/07/23 05:32:20;;;;;;;4.78;2.78;;;;;;;19.18;55.84;101815.75;5061429;28;20072;-66
2022/07/23 05:34:48;;;;;;;4.53;3.03;;;;;;;19.21;55.95;101814.44;5067780;28;20052;-64
2022/07/23 05:37:16;;;;;;;5.43;3.10;;;;;;;19.22;56.00;101821.53;5052742;28;20075;-66
2022/07/23 05:39:44;;;;;;;4.22;2.95;;;;;;;19.23;55.94;101823.16;5065645;28;20073;-65
2022/07/23 05:42:13;;;;;;;3.47;2.65;;;;;;;19.25;55.71;101823.75;5055397;28;20041;-64
2022/07/23 05:44:41;;;;;;;5.20;2.83;;;;;;;19.27;55.95;101829.75;5056971;28;20501;-64
2022/07/23 05:47:09;;;;;;;4.07;2.67;;;;;;;19.29;55.93;101830.31;5052660;28;20136;-63
2022/07/23 05:49:38;;;;;;;3.90;2.78;;;;;;;19.31;56.00;101836.34;5054744;28;20057;-64
2022/07/23 05:52:07;;;;;;;4.60;3.00;;;;;;;19.27;55.67;101829.75;5058268;28;20092;-64
2022/07/23 05:54:35;;;;;;;3.22;2.33;;;;;;;19.35;55.78;101837.47;5061488;28;20053;-64
2022/07/23 05:57:03;;;;;;;4.60;2.53;;;;;;;19.35;55.76;101840.19;5061878;28;20053;-64
2022/07/23 05:59:32;;;;;;;3.00;2.45;;;;;;;19.35;55.65;101832.03;5063780;28;20059;-64
2022/07/23 06:02:00;;;;;;;6.25;3.22;;;;;;;19.39;55.88;101844.06;5049194;28;20049;-65
2022/07/23 06:04:28;;;;;;;4.45;2.78;;;;;;;19.40;55.88;101838.34;5063801;28;20071;-65
2022/07/23 06:06:55;;;;;;;4.55;3.10;;;;;;;19.41;55.72;101836.47;5060376;28;20490;-65
2022/07/23 06:09:23;;;;;;;3.53;3.05;;;;;;;19.40;55.67;101846.53;5049692;28;20112;-65
2022/07/23 06:11:51;;;;;;;5.40;2.58;;;;;;;19.42;55.84;101855.28;5060732;28;20061;-65
2022/07/23 06:14:19;;;;;;;3.80;2.70;;;;;;;19.42;55.62;101858.00;5064002;28;20080;-65
2022/07/23 06:16:48;;;;;;;4.95;2.75;;;;;;;19.43;55.70;101851.47;5058513;28;20049;-65
2022/07/23 06:19:15;;;;;;;3.58;2.25;;;;;;;19.45;55.71;101841.13;5059707;28;20111;-66
2022/07/23 06:21:43;;;;;;;4.45;2.70;;;;;;;19.46;55.47;101845.50;5056730;28;20049;-64
2022/07/23 06:24:14;;;;;;;3.53;2.72;;;;;;;19.46;55.60;101845.50;5060750;28;20498;-63
2022/07/23 06:26:42;;;;;;;3.45;2.63;;;;;;;19.45;55.54;101840.31;5053591;28;20052;-64
2022/07/23 06:29:10;;;;;;;4.47;3.00;;;;;;;19.45;55.64;101851.22;5051205;28;20171;-64
2022/07/23 06:31:38;;;;;;;5.15;2.70;;;;;;;19.43;55.68;101845.19;5058026;28;20080;-64
2022/07/23 06:34:07;;;;;;;3.22;2.30;;;;;;;19.41;55.79;101852.81;5065902;28;20138;-65
2022/07/23 06:36:35;;;;;;;5.45;2.47;;;;;;;19.40;55.83;101859.34;5048917;28;20053;-64
2022/07/23 06:39:03;;;;;;;4.30;3.17;;;;;;;19.39;55.75;101855.78;5045626;28;20049;-64
2022/07/23 06:41:32;;;;;;;3.72;2.00;;;;;;;19.38;55.76;101856.06;5067860;28;20058;-64
2022/07/23 06:44:00;;;;;;;3.42;2.47;;;;;;;19.38;55.67;101854.16;5056537;28;20061;-63
2022/07/23 06:46:28;;;;;;;2.95;2.22;;;;;;;19.38;55.67;101854.16;5056762;28;20084;-64
2022/07/23 06:48:55;;;;;;;4.97;2.55;;;;;;;19.37;55.53;101857.13;5055166;28;20059;-64
2022/07/23 06:51:25;;;;;;;3.67;1.90;;;;;;;19.36;55.84;101859.03;5060555;28;20167;-64
2022/07/23 06:53:52;;;;;;;4.25;2.78;;;;;;;19.35;55.60;101857.38;5060026;28;20041;-63
2022/07/23 06:56:20;;;;;;;3.75;2.63;;;;;;;19.22;55.42;101838.69;5060221;28;20049;-64
2022/07/23 06:58:48;;;;;;;4.07;2.22;;;;;;;19.34;55.50;101849.47;5051158;28;20052;-63
2022/07/23 07:01:16;;;;;;;5.95;2.53;;;;;;;19.34;55.61;101855.75;5054398;28;20100;-63
2022/07/23 07:03:44;;;;;;;2.83;2.08;;;;;;;19.30;55.52;101851.88;5071910;28;20436;-63
2022/07/23 07:06:12;;;;;;;4.30;2.25;;;;;;;19.30;55.68;101848.31;5052228;28;20050;-65
2022/07/23 07:08:42;;;;;;;3.72;1.65;;;;;;;19.34;55.54;101857.63;5052551;28;20399;-66
2022/07/23 07:11:11;;;;;;;4.25;2.13;;;;;;;19.28;55.58;101843.13;5063696;28;20049;-65
2022/07/23 07:13:39;;;;;;;4.10;2.20;;;;;;;19.34;55.72;101858.47;5057790;28;20059;-67
2022/07/23 07:16:07;;;;;;;3.67;1.98;;;;;;;19.35;55.68;101851.94;5055421;28;20088;-67
2022/07/23 07:18:35;;;;;;;5.28;2.10;;;;;;;19.36;55.63;101852.75;5048593;28;20057;-66
2022/07/23 07:21:03;;;;;;;5.57;2.42;;;;;;;19.43;56.33;101859.66;5060544;28;20056;-65
2022/07/23 07:23:30;;;;;;;12.55;2.33;;;;;;;19.40;56.31;101860.16;5048395;28;20099;-66
2022/07/23 07:26:02;;;;;;;5.50;2.28;;;;;;;19.40;56.22;101862.06;5055765;28;20061;-67
2022/07/23 07:28:30;;;;;;;8.85;3.40;;;;;;;19.40;56.17;101860.16;5056866;28;20045;-73
2022/07/23 07:30:58;;;;;;;9.50;2.28;;;;;;;19.42;56.21;101862.63;5065042;28;20076;-72
2022/07/23 07:33:26;;;;;;;8.75;2.20;;;;;;;19.40;55.89;101868.34;5064347;28;20049;-72
2022/07/23 07:35:53;;;;;;;6.07;2.35;;;;;;;19.43;55.98;101877.91;5054606;28;20056;-70
2022/07/23 07:38:21;;;;;;;4.57;1.95;;;;;;;19.45;55.85;101876.59;5062460;28;20071;-70
2022/07/23 07:40:49;;;;;;;5.38;2.13;;;;;;;19.39;55.83;101866.69;5064254;28;20053;-69
2022/07/23 07:43:18;;;;;;;3.63;1.80;;;;;;;19.41;55.88;101872.72;5053735;28;20068;-70
2022/07/23 07:45:46;;;;;;;3.33;1.80;;;;;;;19.46;55.96;101874.69;5060721;28;20056;-70
2022/07/23 07:48:14;;;;;;;7.57;2.78;;;;;;;19.45;55.79;101875.75;5063434;28;20057;-69
2022/07/23 07:50:41;;;;;;;2.90;1.77;;;;;;;19.48;55.68;101877.97;5060876;28;20053;-72
2022/07/23 07:53:10;;;;;;;7.13;2.20;;;;;;;19.48;55.80;101878.78;5059892;28;20375;-70
2022/07/23 07:55:38;;;;;;;3.85;2.00;;;;;;;19.47;55.93;101876.31;5058075;28;20050;-70
2022/07/23 07:58:06;;;;;;;6.10;1.70;;;;;;;19.49;55.69;101880.44;5062381;28;20049;-69
2022/07/23 08:00:35;;;;;;;5.30;1.90;;;;;;;19.50;55.97;101881.28;5065640;28;20056;-70
2022/07/23 08:03:04;;;;;;;3.10;2.20;;;;;;;19.47;55.87;101873.59;5062973;28;20118;-70
2022/07/23 08:05:32;;;;;;;1.77;1.48;;;;;;;19.52;55.92;101870.13;5056086;28;20051;-70
2022/07/23 08:08:00;;;;;;;4.10;1.90;;;;;;;19.54;55.91;101876.97;5043991;28;20076;-71
2022/07/23 08:10:29;;;;;;;3.03;1.73;;;;;;;19.42;55.91;101866.19;5058097;28;20077;-69
2022/07/23 08:12:58;;;;;;;3.70;1.80;;;;;;;19.54;55.66;101876.16;5053619;28;20055;-69
2022/07/23 08:15:27;;;;;;;4.90;1.75;;;;;;;19.55;55.71;101877.81;5064388;28;20045;-70
2022/07/23 08:17:57;;;;;;;2.97;1.80;;;;;;;19.50;55.60;101870.34;5070094;28;20052;-70
2022/07/23 08:20:26;;;;;;;4.50;2.13;;;;;;;19.57;55.60;101876.47;5061444;28;20049;-70
2022/07/23 08:22:57;;;;;;;3.10;1.60;;;;;;;19.57;55.60;101876.47;5053549;28;20064;-69
2022/07/23 08:25:26;;;;;;;3.58;2.20;;;;;;;19.58;55.58;101886.28;5062652;28;20048;-69
2022/07/23 08:27:55;;;;;;;5.22;1.90;;;;;;;19.60;55.55;101888.78;5063264;28;20072;-70
2022/07/23 08:30:23;;;;;;;4.50;2.38;;;;;;;19.60;55.51;101899.69;5063129;28;20069;-70
2022/07/23 08:32:55;;;;;;;3.38;1.65;;;;;;;19.57;55.48;101892.84;5057383;28;20049;-70
2022/07/23 08:35:26;;;;;;;3.65;1.90;;;;;;;19.61;55.62;101891.25;5063872;28;20048;-70
2022/07/23 08:37:55;;;;;;;3.13;1.92;;;;;;;19.62;55.48;101892.88;5073864;28;20060;-70
2022/07/23 08:40:23;;;;;;;3.90;1.67;;;;;;;19.62;55.55;101890.16;5060305;28;20045;-70
2022/07/23 08:42:51;;;;;;;2.67;2.08;;;;;;;19.65;55.58;101899.72;5060999;28;20052;-70
2022/07/23 08:45:23;;;;;;;5.47;2.05;;;;;;;19.65;55.45;101897.81;5063810;28;20524;-69
2022/07/23 08:47:52;;;;;;;3.33;2.38;;;;;;;19.64;55.81;101907.09;5062498;28;20048;-70
2022/07/23 08:50:20;;;;;;;4.32;2.47;;;;;;;19.65;55.46;101897.00;5063014;28;20053;-68
2022/07/23 08:52:51;;;;;;;3.25;2.08;;;;;;;19.69;55.51;101898.97;5064286;28;20491;-70
2022/07/23 08:55:20;;;;;;;4.00;2.00;;;;;;;19.69;55.54;101893.50;5050552;28;20094;-71
2022/07/23 08:57:50;;;;;;;3.97;2.10;;;;;;;19.72;55.60;101889.44;5059124;28;20049;-69
2022/07/23 09:00:18;;;;;;;4.97;2.13;;;;;;;19.72;55.36;101889.44;5063550;28;20051;-69
2022/07/23 09:02:47;;;;;;;3.35;2.10;;;;;;;19.76;55.54;101896.03;4700640;28;10000575;-70
2022/07/23 09:05:16;;;;;;;2.67;1.88;;;;;;;19.79;55.26;101903.69;5060611;28;20143;-70
2022/07/23 09:08:11;;;;;;;3.08;1.98;;;;;;;19.80;55.45;101900.72;5062482;28;20068;-69
2022/07/23 09:10:51;;;;;;;7.13;2.75;;;;;;;19.82;55.36;101886.81;5055520;28;20084;-70
2022/07/23 09:13:28;;;;;;;5.30;2.50;;;;;;;19.72;54.70;101875.81;5061833;28;20105;-73
2022/07/23 09:15:57;;;;;;;3.35;2.13;;;;;;;19.84;54.82;101892.84;5061969;28;20052;-74
2022/07/23 09:18:34;;;;;;;6.50;2.00;;;;;;;19.89;54.77;101883.88;5057761;28;20082;-68
2022/07/23 09:21:19;;;;;;;3.90;2.42;;;;;;;19.93;53.88;101876.81;5060122;28;20048;-63
2022/07/23 09:23:51;;;;;;;4.18;2.00;;;;;;;19.95;54.70;101880.09;5065602;28;20112;-69
2022/07/23 09:26:33;;;;;;;4.00;1.88;;;;;;;19.97;54.86;101873.31;5062832;28;20076;-73
2022/07/23 09:29:05;;;;;;;5.00;1.88;;;;;;;19.98;54.89;101868.69;5076827;28;20143;-72
2022/07/23 09:31:43;;;;;;;3.25;1.70;;;;;;;20.02;54.71;101876.09;5076125;28;20049;-75
2022/07/23 09:34:17;;;;;;;3.58;2.10;;;;;;;20.04;54.87;101887.56;5066835;28;20079;-76
2022/07/23 09:36:45;;;;;;;4.20;2.08;;;;;;;20.08;55.14;101887.88;5063551;28;20049;-67
2022/07/23 09:39:17;;;;;;;5.32;2.33;;;;;;;20.16;54.88;101890.13;5076070;28;20054;-72
2022/07/23 09:41:47;;;;;;;8.00;2.67;;;;;;;20.07;54.77;101876.13;4707095;28;9999908;-72
2022/07/23 09:44:17;;;;;;;4.65;2.17;;;;;;;20.22;54.63;101897.25;5060796;28;20360;-75
2022/07/23 09:46:46;;;;;;;4.00;1.85;;;;;;;20.24;54.69;101895.09;5061634;28;20056;-68
2022/07/23 09:49:17;;;;;;;3.47;1.92;;;;;;;20.26;54.68;101900.28;5058598;28;20049;-72
2022/07/23 09:51:47;;;;;;;5.28;2.20;;;;;;;20.26;54.66;101901.13;5060292;28;20147;-74
2022/07/23 09:54:30;;;;;;;5.13;2.08;;;;;;;20.29;54.66;101892.41;5058434;28;20049;-72
2022/07/23 09:56:59;;;;;;;4.45;1.80;;;;;;;20.31;54.56;101898.44;5056892;28;20138;-72
2022/07/23 09:59:28;;;;;;;2.83;1.80;;;;;;;20.33;54.67;101899.00;5070003;28;20080;-71
2022/07/23 10:01:59;;;;;;;5.60;2.00;;;;;;;20.35;54.57;101896.00;5065538;28;20076;-70
2022/07/23 10:04:29;;;;;;;2.97;1.83;;;;;;;20.37;54.65;101897.38;5058581;28;20458;-69
2022/07/23 10:06:58;;;;;;;4.13;2.00;;;;;;;20.40;54.76;101894.16;5054902;28;20056;-70
2022/07/23 10:09:30;;;;;;;3.65;1.88;;;;;;;20.44;54.87;101897.19;5069093;28;21385;-71
2022/07/23 10:14:45;;;;;;;4.43;2.03;;;;;;;20.54;55.39;101888.25;5055307;28;20053;-71
2022/07/23 10:17:13;;;;;;;2.67;1.70;;;;;;;20.59;55.24;101891.84;5057154;28;20072;-71
2022/07/23 10:19:41;;;;;;;3.25;1.70;;;;;;;20.63;55.16;101889.41;5054954;28;20057;-71
2022/07/23 10:22:10;;;;;;;2.13;1.55;;;;;;;20.67;55.18;101890.53;5061788;28;20057;-73
2022/07/23 10:24:54;;;;;;;5.18;1.80;;;;;;;20.69;54.93;101885.63;5067146;28;20104;-73
2022/07/23 10:27:38;;;;;;;2.40;1.60;;;;;;;20.74;55.05;101886.47;5048256;28;20068;-71
2022/07/23 10:30:08;;;;;;;3.28;1.60;;;;;;;20.77;54.96;101885.13;5059944;28;20057;-70
2022/07/23 10:32:46;;;;;;;4.05;2.00;;;;;;;20.82;54.85;101887.84;5062661;28;20096;-71
2022/07/23 10:35:24;;;;;;;2.78;1.50;;;;;;;20.83;54.87;101885.94;5062852;28;20082;-71
2022/07/23 10:37:57;;;;;;;4.57;1.67;;;;;;;20.90;54.82;101881.06;5055142;28;20091;-71
2022/07/23 10:40:28;;;;;;;2.78;1.58;;;;;;;20.95;54.88;101884.63;5060864;28;20048;-72
2022/07/23 10:43:00;;;;;;;3.42;1.60;;;;;;;20.98;54.60;101881.38;5058110;28;20041;-73
2022/07/23 10:45:31;;;;;;;3.22;1.35;;;;;;;21.03;54.39;101880.56;5058101;28;20061;-73
2022/07/23 10:48:16;;;;;;;4.25;1.92;;;;;;;21.10;54.80;101883.88;5056033;28;20057;-72
2022/07/23 10:51:05;;;;;;;7.80;1.85;;;;;;;21.13;55.13;101884.16;5062336;28;20133;-72
2022/07/23 10:53:54;;;;;;;5.10;2.00;;;;;;;21.20;54.76;101880.38;5055814;28;20044;-69
2022/07/23 10:57:06;;;;;;;3.70;1.60;;;;;;;21.25;55.22;101885.88;5067165;28;20049;-69
2022/07/23 11:00:08;;;;;;;5.40;1.92;;;;;;;21.31;54.51;101882.91;5053338;28;20137;-74
2022/07/23 11:02:37;;;;;;;2.83;1.77;;;;;;;21.23;54.31;101867.03;5061041;28;20121;-73
2022/07/23 11:05:08;;;;;;;3.38;1.65;;;;;;;21.41;54.64;101887.59;5062204;28;20044;-65
2022/07/23 11:07:36;;;;;;;4.68;1.85;;;;;;;21.48;54.89;101884.59;5057887;28;20049;-68
2022/07/23 11:10:05;;;;;;;2.97;1.95;;;;;;;21.51;53.84;101882.16;5061148;28;20041;-68
2022/07/23 11:12:37;;;;;;;4.60;1.67;;;;;;;21.52;53.25;101882.97;5055322;28;20049;-68
2022/07/23 11:15:08;;;;;;;4.80;1.52;;;;;;;21.55;53.82;101880.50;5052480;28;20079;-69
2022/07/23 11:17:38;;;;;;;3.63;1.75;;;;;;;21.56;54.30;101876.69;5054837;28;20072;-68
2022/07/23 11:20:19;;;;;;;7.45;2.00;;;;;;;21.67;53.57;101877.53;5055198;28;20045;-68
2022/07/23 11:22:57;;;;;;;2.30;1.30;;;;;;;21.70;52.74;101885.19;5056724;28;20064;-68
2022/07/23 11:25:37;;;;;;;2.88;1.30;;;;;;;21.69;53.12;101872.59;5046513;28;20608;-69
2022/07/23 11:28:12;;;;;;;3.15;1.70;;;;;;;21.79;52.18;101877.28;5052650;28;20045;-69
2022/07/23 11:30:42;;;;;;;2.28;1.60;;;;;;;21.82;52.14;101876.72;5052609;28;20052;-69
2022/07/23 11:33:19;;;;;;;2.15;1.58;;;;;;;21.87;52.31;101884.94;5055516;28;20057;-68
2022/07/23 11:35:49;;;;;;;2.05;1.45;;;;;;;21.90;52.04;101881.66;5053625;28;20106;-67
2022/07/23 11:38:19;;;;;;;2.15;1.63;;;;;;;21.94;52.09;101875.38;5056436;28;20114;-68
2022/07/23 11:40:51;;;;;;;5.50;1.58;;;;;;;22.04;52.42;101871.84;5053039;28;20073;-68